Time;durP1;ratioP1;P1;durP2;ratioP2;P2;SDS_P1;SDS_P2;PMS_P1;PMS_P2;Temp;Humidity;BMP_temperature;BMP_pressure;BME280_temperature;BME280_humidity;BME280_pressure;Samples;Min_cycle;Max_cycle;Signal;HPM_P1;HPM_P2
2021/01/01 00:00:49;;;;;;;41.33;23.57;;;6.20;86.30;;;;;;4987004;28;20241;-75
2021/01/01 00:03:16;;;;;;;54.07;24.43;;;6.20;86.20;;;;;;4986805;28;20184;-75
2021/01/01 00:05:45;;;;;;;47.03;23.80;;;6.10;86.00;;;;;;4986522;28;20208;-75
2021/01/01 00:08:11;;;;;;;47.43;22.57;;;6.10;86.10;;;;;;4991209;28;20923;-75
2021/01/01 00:10:37;;;;;;;45.80;24.50;;;6.10;86.40;;;;;;5007587;28;20177;-75
2021/01/01 00:13:02;;;;;;;48.70;25.90;;;6.00;86.70;;;;;;5007408;28;20220;-75
2021/01/01 00:15:28;;;;;;;52.60;27.13;;;6.00;86.90;;;;;;5007668;28;20177;-75
2021/01/01 00:17:54;;;;;;;54.83;27.03;;;5.90;87.30;;;;;;5006125;28;20197;-76
2021/01/01 00:20:20;;;;;;;48.87;25.03;;;5.90;87.40;;;;;;5007774;28;20179;-76
2021/01/01 00:22:45;;;;;;;62.37;26.93;;;5.90;87.30;;;;;;5007819;28;20235;-75
2021/01/01 00:25:12;;;;;;;63.90;26.47;;;5.90;87.30;;;;;;5007523;28;20205;-75
2021/01/01 00:27:38;;;;;;;48.13;25.10;;;5.80;87.20;;;;;;5007451;28;20184;-75
2021/01/01 00:30:05;;;;;;;51.40;24.57;;;5.80;87.20;;;;;;5006092;28;20177;-75
2021/01/01 00:32:31;;;;;;;57.90;27.70;;;5.80;87.20;;;;;;5005741;28;20621;-75
2021/01/01 00:34:57;;;;;;;72.50;28.00;;;5.70;88.50;;;;;;5020373;28;20745;-75
2021/01/01 00:37:23;;;;;;;62.90;28.00;;;5.70;88.20;;;;;;5021368;28;20184;-74
2021/01/01 00:39:49;;;;;;;61.50;27.90;;;5.60;88.10;;;;;;5021635;28;20185;-75
2021/01/01 00:42:14;;;;;;;56.03;28.07;;;5.50;88.60;;;;;;5005420;28;20184;-75
2021/01/01 00:44:41;;;;;;;50.30;26.47;;;5.50;88.70;;;;;;5006261;28;20375;-75
2021/01/01 00:47:10;;;;;;;64.60;26.97;;;5.50;88.60;;;;;;5006098;28;20275;-74
2021/01/01 00:49:36;;;;;;;60.10;27.33;;;5.50;88.50;;;;;;5006493;28;20967;-75
2021/01/01 00:52:03;;;;;;;55.77;27.17;;;5.40;89.00;;;;;;5004946;28;20320;-75
2021/01/01 00:54:29;;;;;;;58.80;27.40;;;5.40;89.30;;;;;;5005143;28;20258;-75
2021/01/01 00:56:55;;;;;;;54.90;25.87;;;5.40;89.20;;;;;;5006470;28;20177;-75
2021/01/01 00:59:21;;;;;;;56.37;26.60;;;5.40;89.20;;;;;;5006274;28;20177;-75
2021/01/01 01:01:47;;;;;;;48.30;24.00;;;5.30;89.40;;;;;;5021358;28;20181;-76
2021/01/01 01:04:12;;;;;;;53.53;24.17;;;5.30;90.20;;;;;;5006234;28;20276;-75
2021/01/01 01:06:38;;;;;;;48.03;24.57;;;5.30;89.90;;;;;;5006548;28;20173;-75
2021/01/01 01:09:04;;;;;;;45.40;23.93;;;5.30;89.70;;;;;;5006710;28;20177;-76
2021/01/01 01:11:31;;;;;;;40.93;22.13;;;5.30;89.60;;;;;;5006967;28;20177;-75
2021/01/01 01:13:57;;;;;;;53.63;24.03;;;5.30;89.70;;;;;;5021940;28;20177;-75
2021/01/01 01:16:32;;;;;;;42.63;23.20;;;5.20;90.30;;;;;;5006250;28;20256;-76
2021/01/01 01:19:00;;;;;;;50.50;24.50;;;5.20;90.50;;;;;;5006719;28;20149;-75
2021/01/01 01:21:27;;;;;;;41.80;22.07;;;5.20;90.40;;;;;;5021300;28;20192;-75
2021/01/01 01:23:53;;;;;;;45.23;22.87;;;5.20;90.40;;;;;;5005007;28;20251;-75
2021/01/01 01:26:19;;;;;;;54.33;24.00;;;5.20;90.40;;;;;;4999703;28;20284;-75
2021/01/01 01:28:45;;;;;;;47.33;23.97;;;5.20;90.70;;;;;;4995698;28;21045;-75
2021/01/01 01:31:11;;;;;;;39.80;20.03;;;5.10;91.40;;;;;;5002215;28;20711;-75
2021/01/01 01:33:37;;;;;;;38.67;16.80;;;5.10;91.60;;;;;;4998290;28;20188;-75
2021/01/01 01:36:03;;;;;;;35.20;17.33;;;5.00;91.30;;;;;;5004277;28;20662;-74
2021/01/01 01:38:29;;;;;;;36.90;18.63;;;5.00;91.30;;;;;;4992313;28;20637;-75
2021/01/01 01:40:55;;;;;;;27.83;16.87;;;5.00;91.10;;;;;;4988359;28;20183;-75
2021/01/01 01:43:23;;;;;;;34.57;16.93;;;5.00;91.20;;;;;;5006158;28;20251;-76
2021/01/01 01:45:48;;;;;;;31.27;16.23;;;5.10;91.50;;;;;;5006500;28;20207;-75
2021/01/01 01:48:27;;;;;;;26.37;16.77;;;5.10;91.30;;;;;;5006003;28;20173;-75
2021/01/01 01:50:53;;;;;;;32.77;17.60;;;5.10;91.00;;;;;;5000503;28;20629;-74
2021/01/01 01:53:21;;;;;;;31.77;16.40;;;5.10;90.80;;;;;;4995960;28;20189;-75
2021/01/01 01:55:47;;;;;;;36.77;17.67;;;5.10;91.10;;;;;;5005845;28;20181;-75
2021/01/01 01:58:14;;;;;;;35.37;19.03;;;5.10;91.10;;;;;;5001596;28;20188;-75
2021/01/01 02:03:13;;;;;;;34.77;16.77;;;5.10;91.20;;;;;;4991597;28;20217;-76
2021/01/01 02:05:39;;;;;;;36.70;18.10;;;5.20;91.50;;;;;;4985650;28;20193;-75
2021/01/01 02:08:05;;;;;;;32.23;18.03;;;5.20;91.20;;;;;;4987802;28;20232;-75
2021/01/01 02:10:32;;;;;;;34.40;18.90;;;5.20;91.00;;;;;;5005828;28;20177;-75
2021/01/01 02:12:58;;;;;;;31.37;17.83;;;5.30;90.70;;;;;;5006045;28;20173;-75
2021/01/01 02:15:25;;;;;;;41.70;18.53;;;5.30;90.50;;;;;;4996884;28;20213;-75
2021/01/01 02:17:50;;;;;;;37.50;18.53;;;5.30;90.50;;;;;;4996090;28;20197;-75
2021/01/01 02:20:16;;;;;;;34.30;17.07;;;5.30;90.70;;;;;;4992626;28;20182;-75
2021/01/01 02:22:42;;;;;;;31.83;17.13;;;5.30;90.50;;;;;;4985744;28;20181;-75
2021/01/01 02:25:09;;;;;;;28.37;16.00;;;5.30;90.40;;;;;;4986007;28;20205;-76
2021/01/01 02:27:36;;;;;;;26.93;15.63;;;5.30;90.40;;;;;;4986005;28;20193;-76
2021/01/01 02:30:03;;;;;;;33.07;16.40;;;5.30;90.40;;;;;;4991129;28;20240;-76
2021/01/01 02:32:29;;;;;;;31.70;17.67;;;5.30;90.50;;;;;;4995223;28;20298;-75
2021/01/01 02:34:55;;;;;;;28.47;15.93;;;5.30;90.50;;;;;;4987573;28;20664;-76
2021/01/01 02:37:20;;;;;;;29.43;14.33;;;5.30;90.40;;;;;;4994135;28;20252;-76
2021/01/01 02:39:46;;;;;;;23.47;13.27;;;5.30;90.50;;;;;;5005152;28;20644;-75
2021/01/01 02:42:14;;;;;;;24.03;12.50;;;5.20;90.40;;;;;;5005130;28;20184;-76
2021/01/01 02:44:41;;;;;;;22.20;12.80;;;5.20;90.30;;;;;;5004912;28;20205;-75
2021/01/01 02:47:06;;;;;;;27.47;13.73;;;5.20;90.40;;;;;;5005170;28;20181;-75
2021/01/01 02:49:32;;;;;;;21.87;11.47;;;5.20;90.40;;;;;;5005430;28;20181;-75
2021/01/01 02:52:00;;;;;;;23.37;11.27;;;5.20;90.50;;;;;;5005144;28;20177;-75
2021/01/01 02:54:26;;;;;;;23.50;12.17;;;5.20;90.40;;;;;;5004982;28;20379;-75
2021/01/01 02:56:52;;;;;;;23.67;10.70;;;5.20;90.40;;;;;;5002731;28;20829;-76
2021/01/01 02:59:21;;;;;;;18.27;10.60;;;5.20;90.30;;;;;;4998194;28;20189;-76
2021/01/01 03:01:47;;;;;;;19.93;10.93;;;5.20;90.40;;;;;;4985643;28;20177;-75
2021/01/01 03:04:13;;;;;;;16.10;8.87;;;5.30;90.40;;;;;;5003827;28;20947;-75
2021/01/01 03:06:39;;;;;;;18.37;9.97;;;5.30;90.30;;;;;;5007668;28;20755;-74
2021/01/01 03:09:05;;;;;;;11.63;8.07;;;5.30;90.10;;;;;;5009347;28;20185;-75
2021/01/01 03:11:31;;;;;;;17.77;9.40;;;5.20;89.90;;;;;;5008700;28;20181;-74
2021/01/01 03:13:58;;;;;;;15.17;8.87;;;5.20;90.00;;;;;;4995566;28;20177;-74
2021/01/01 03:16:23;;;;;;;13.43;8.53;;;5.20;90.10;;;;;;4999394;28;20197;-74
2021/01/01 03:18:49;;;;;;;18.10;8.83;;;5.20;89.90;;;;;;5009164;28;20180;-74
2021/01/01 03:21:18;;;;;;;16.87;9.13;;;5.20;89.80;;;;;;4992148;28;20201;-75
2021/01/01 03:23:43;;;;;;;19.90;9.37;;;5.20;90.00;;;;;;4988026;28;20213;-75
2021/01/01 03:26:09;;;;;;;15.97;10.00;;;5.20;90.10;;;;;;4989394;28;20232;-75
2021/01/01 03:28:35;;;;;;;18.23;11.03;;;5.10;90.20;;;;;;4989172;28;20196;-75
2021/01/01 03:31:01;;;;;;;16.33;9.53;;;5.10;90.20;;;;;;5003191;28;20177;-75
2021/01/01 03:33:27;;;;;;;16.93;9.70;;;5.10;90.50;;;;;;5008739;28;20181;-75
2021/01/01 03:35:53;;;;;;;15.90;9.40;;;5.10;90.60;;;;;;5022714;28;20718;-75
2021/01/01 03:38:19;;;;;;;18.30;9.60;;;5.10;90.60;;;;;;5006658;28;20215;-75
2021/01/01 03:40:49;;;;;;;17.63;9.43;;;5.10;90.70;;;;;;5006989;28;20173;-75
2021/01/01 03:43:14;;;;;;;15.00;9.63;;;5.10;90.40;;;;;;5000170;28;20179;-75
2021/01/01 03:45:40;;;;;;;17.83;9.33;;;5.10;90.60;;;;;;5007844;28;20205;-75
2021/01/01 03:48:07;;;;;;;15.33;9.67;;;5.10;90.70;;;;;;5006920;28;20185;-75
2021/01/01 03:50:33;;;;;;;17.57;9.33;;;5.10;90.70;;;;;;5003890;28;20182;-75
2021/01/01 03:52:59;;;;;;;14.83;8.80;;;5.10;90.60;;;;;;5001479;28;20184;-75
2021/01/01 03:55:24;;;;;;;14.80;9.53;;;5.20;90.40;;;;;;4997214;28;20181;-76
2021/01/01 03:57:50;;;;;;;16.93;8.77;;;5.20;90.10;;;;;;4988675;28;20174;-75
2021/01/01 04:00:16;;;;;;;16.73;9.37;;;5.20;89.90;;;;;;5004730;28;20193;-75
2021/01/01 04:02:42;;;;;;;12.93;8.87;;;5.20;89.90;;;;;;5007929;28;20173;-75
2021/01/01 04:05:08;;;;;;;13.03;9.13;;;5.10;90.10;;;;;;5007074;28;20570;-75
2021/01/01 04:07:34;;;;;;;16.63;8.93;;;5.10;90.40;;;;;;5007047;28;20173;-75
2021/01/01 04:09:59;;;;;;;14.73;9.23;;;5.00;90.40;;;;;;5014760;28;20251;-75
2021/01/01 04:12:25;;;;;;;15.90;9.67;;;5.00;90.40;;;;;;4995999;28;20181;-75
2021/01/01 04:14:51;;;;;;;20.27;10.03;;;5.00;90.50;;;;;;5003823;28;20693;-74
2021/01/01 04:17:17;;;;;;;20.27;9.40;;;4.90;90.60;;;;;;5018575;28;20191;-74
2021/01/01 04:19:43;;;;;;;18.20;9.60;;;4.80;90.50;;;;;;5006219;28;20184;-74
2021/01/01 04:22:09;;;;;;;15.27;9.17;;;4.80;90.60;;;;;;5006962;28;20200;-74
2021/01/01 04:24:35;;;;;;;19.53;9.07;;;4.80;90.70;;;;;;5022529;28;20197;-75
2021/01/01 04:27:00;;;;;;;18.97;8.90;;;4.70;91.00;;;;;;5005388;28;20546;-74
2021/01/01 04:29:26;;;;;;;10.70;7.40;;;4.70;91.20;;;;;;5006241;28;20193;-75
2021/01/01 04:31:52;;;;;;;12.60;8.20;;;4.70;91.60;;;;;;5005933;28;20181;-75
2021/01/01 04:34:18;;;;;;;13.63;7.33;;;4.70;91.50;;;;;;5023062;28;20646;-76
2021/01/01 04:36:43;;;;;;;10.57;7.63;;;4.70;91.40;;;;;;5023288;28;21072;-76
2021/01/01 04:39:09;;;;;;;13.50;8.10;;;4.70;91.30;;;;;;5006792;28;20819;-75
2021/01/01 04:41:36;;;;;;;15.37;8.83;;;4.70;91.10;;;;;;5004701;28;20173;-75
2021/01/01 04:44:04;;;;;;;12.50;7.73;;;4.70;91.30;;;;;;4994211;28;20720;-74
2021/01/01 04:46:30;;;;;;;12.60;8.37;;;4.60;91.20;;;;;;5007070;28;20192;-75
2021/01/01 04:48:56;;;;;;;17.53;8.60;;;4.60;91.20;;;;;;5005451;28;20185;-75
2021/01/01 04:51:21;;;;;;;16.47;8.00;;;4.60;91.00;;;;;;5005557;28;20696;-76
2021/01/01 04:53:47;;;;;;;18.67;9.00;;;4.60;90.80;;;;;;5005732;28;20186;-76
2021/01/01 04:56:13;;;;;;;20.50;8.33;;;4.50;90.80;;;;;;4999124;28;20316;-75
2021/01/01 04:58:38;;;;;;;11.20;7.53;;;4.50;91.10;;;;;;5006911;28;20207;-76
2021/01/01 05:01:04;;;;;;;18.47;8.93;;;4.40;91.00;;;;;;5000850;28;20192;-75
2021/01/01 05:03:30;;;;;;;12.73;8.03;;;4.40;91.20;;;;;;5004956;28;20181;-76
2021/01/01 05:05:56;;;;;;;16.83;8.33;;;4.40;91.40;;;;;;5007206;28;20201;-76
2021/01/01 05:08:22;;;;;;;15.43;8.93;;;4.30;91.40;;;;;;5021161;28;21025;-76
2021/01/01 05:10:49;;;;;;;13.13;8.27;;;4.30;91.50;;;;;;5005400;28;20185;-76
2021/01/01 05:13:20;;;;;;;16.30;8.00;;;4.30;91.80;;;;;;5005695;28;20580;-76
2021/01/01 05:15:47;;;;;;;18.23;7.77;;;4.20;91.60;;;;;;5007931;28;20646;-75
2021/01/01 05:18:20;;;;;;;12.03;7.77;;;4.20;91.70;;;;;;5007013;28;20181;-75
2021/01/01 05:20:47;;;;;;;12.43;6.63;;;4.20;91.70;;;;;;5005660;28;20277;-75
2021/01/01 05:23:41;;;;;;;8.90;6.47;;;4.20;92.00;;;;;;5004892;28;20203;-76
2021/01/01 05:26:11;;;;;;;13.63;7.37;;;4.20;92.00;;;;;;5000194;28;20216;-74
2021/01/01 05:28:48;;;;;;;13.23;6.83;;;4.10;91.90;;;;;;5005337;28;20193;-75
2021/01/01 05:31:18;;;;;;;11.37;7.07;;;4.10;91.70;;;;;;5020093;28;20181;-75
2021/01/01 05:34:01;;;;;;;11.60;7.10;;;4.10;91.70;;;;;;4996011;28;20616;-75
2021/01/01 05:36:36;;;;;;;10.77;6.50;;;4.00;91.80;;;;;;4990939;28;20177;-75
2021/01/01 05:39:24;;;;;;;8.30;6.93;;;4.00;91.90;;;;;;5005624;28;20947;-75
2021/01/01 05:41:51;;;;;;;11.47;6.87;;;4.00;92.00;;;;;;5019112;28;20193;-76
2021/01/01 05:44:24;;;;;;;12.33;5.70;;;3.90;92.10;;;;;;5006898;28;20197;-75
2021/01/01 05:46:56;;;;;;;11.57;6.60;;;3.90;91.90;;;;;;5005204;28;20184;-75
2021/01/01 05:49:24;;;;;;;12.47;6.23;;;3.90;92.30;;;;;;4994374;28;20565;-75
2021/01/01 05:52:15;;;;;;;14.23;6.43;;;3.90;92.30;;;;;;5004201;28;20204;-75
2021/01/01 05:54:44;;;;;;;9.53;6.00;;;3.80;92.00;;;;;;5001313;28;20190;-76
2021/01/01 05:57:11;;;;;;;8.93;6.43;;;3.80;92.60;;;;;;4996784;28;20181;-76
2021/01/01 05:59:42;;;;;;;6.80;5.60;;;3.90;92.80;;;;;;5005053;28;20181;-76
2021/01/01 06:02:09;;;;;;;10.57;6.47;;;3.90;92.80;;;;;;5004151;28;20255;-76
2021/01/01 06:04:35;;;;;;;11.23;6.50;;;3.90;92.70;;;;;;5003674;28;20197;-76
2021/01/01 06:07:06;;;;;;;11.13;7.23;;;3.80;92.60;;;;;;4997983;28;20194;-76
2021/01/01 06:09:34;;;;;;;13.90;7.53;;;3.80;92.80;;;;;;5004179;28;20307;-76
2021/01/01 06:12:10;;;;;;;11.57;7.00;;;3.80;93.40;;;;;;5006869;28;20242;-76
2021/01/01 06:14:44;;;;;;;14.63;6.70;;;3.80;93.00;;;;;;4991417;28;20843;-76
2021/01/01 06:17:10;;;;;;;12.60;6.50;;;3.80;93.00;;;;;;4997438;28;20180;-75
2021/01/01 06:19:52;;;;;;;11.03;6.80;;;3.70;93.00;;;;;;5006066;28;20187;-75
2021/01/01 06:22:22;;;;;;;11.43;7.23;;;3.80;93.20;;;;;;5005133;28;20185;-76
2021/01/01 06:24:53;;;;;;;10.13;6.80;;;3.80;93.30;;;;;;4986363;28;20165;-76
2021/01/01 06:27:38;;;;;;;12.83;6.50;;;3.80;93.40;;;;;;5006279;28;20199;-76
2021/01/01 06:30:10;;;;;;;12.63;6.90;;;3.90;93.30;;;;;;5004261;28;21130;-76
2021/01/01 06:32:37;;;;;;;9.00;7.03;;;3.90;93.40;;;;;;5005719;28;20200;-76
2021/01/01 06:35:20;;;;;;;11.40;7.13;;;4.10;93.60;;;;;;5006599;28;20224;-76
2021/01/01 06:37:56;;;;;;;10.77;6.33;;;4.20;93.20;;;;;;5006062;28;20173;-77
2021/01/01 06:40:22;;;;;;;11.67;7.03;;;4.50;93.10;;;;;;5012850;28;20188;-76
2021/01/01 06:42:57;;;;;;;10.10;7.20;;;4.70;93.30;;;;;;5021845;28;20189;-76
2021/01/01 06:45:44;;;;;;;15.10;7.50;;;5.10;92.80;;;;;;5003933;28;20856;-76
2021/01/01 06:48:30;;;;;;;10.00;6.50;;;5.40;92.10;;;;;;5003106;28;20267;-76
2021/01/01 06:50:55;;;;;;;11.27;6.57;;;5.80;90.40;;;;;;4927791;29;20294;-76
2021/01/01 06:53:28;;;;;;;12.40;6.93;;;6.10;89.70;;;;;;4930296;29;20274;-76
2021/01/01 06:56:07;;;;;;;12.10;6.83;;;6.50;90.00;;;;;;4936611;29;20318;-75
2021/01/01 06:58:32;;;;;;;12.43;6.97;;;7.00;89.50;;;;;;4933605;29;20646;-74
2021/01/01 07:00:58;;;;;;;17.03;7.20;;;7.40;87.70;;;;;;4920601;29;20192;-74
2021/01/01 07:05:53;;;;;;;9.93;6.40;;;8.30;85.10;;;;;;4943117;29;20257;-75
2021/01/01 07:08:43;;;;;;;9.20;6.77;;;8.70;83.80;;;;;;4932480;29;20645;-74
2021/01/01 07:11:13;;;;;;;8.87;6.73;;;9.20;83.30;;;;;;4935006;29;20283;-73
2021/01/01 07:13:53;;;;;;;10.30;6.67;;;9.60;82.40;;;;;;4914068;29;20254;-73
2021/01/01 07:16:26;;;;;;;13.13;7.07;;;10.10;81.40;;;;;;4925573;29;21088;-77
2021/01/01 07:18:53;;;;;;;12.63;7.30;;;10.50;80.00;;;;;;4917470;29;20179;-76
2021/01/01 07:21:19;;;;;;;13.67;8.13;;;10.90;78.10;;;;;;4944111;29;20183;-77
2021/01/01 07:23:46;;;;;;;13.13;7.25;;;11.20;77.20;;;;;;4925683;29;20207;-77
2021/01/01 07:26:13;;;;;;;10.73;7.30;;;11.60;74.80;;;;;;4936235;29;20677;-76
2021/01/01 07:28:40;;;;;;;10.32;7.70;;;11.90;74.80;;;;;;4970853;28;20771;-76
2021/01/01 07:31:06;;;;;;;12.07;7.68;;;12.20;73.80;;;;;;5005721;28;20566;-76
2021/01/01 07:33:33;;;;;;;8.60;6.90;;;12.50;72.60;;;;;;5002771;28;20190;-76
2021/01/01 07:36:06;;;;;;;14.25;7.57;;;12.50;71.70;;;;;;5006293;28;20254;-76
2021/01/01 07:38:34;;;;;;;9.57;7.22;;;12.50;71.20;;;;;;5005574;28;20177;-75
2021/01/01 07:41:01;;;;;;;13.02;7.78;;;12.40;71.60;;;;;;5018975;28;20181;-75
2021/01/01 07:43:27;;;;;;;13.15;8.38;;;12.20;70.60;;;;;;5002825;28;20243;-74
2021/01/01 07:46:04;;;;;;;10.07;7.28;;;12.30;70.50;;;;;;5006126;28;20212;-74
2021/01/01 07:48:30;;;;;;;10.13;7.88;;;12.40;71.20;;;;;;5004060;28;20263;-73
2021/01/01 07:51:00;;;;;;;9.30;6.95;;;12.40;70.70;;;;;;5012450;28;20283;-74
2021/01/01 07:53:26;;;;;;;11.95;7.60;;;12.40;70.50;;;;;;5007244;28;20193;-73
2021/01/01 07:55:52;;;;;;;11.48;7.70;;;12.50;69.70;;;;;;5006936;28;20205;-73
2021/01/01 07:58:18;;;;;;;8.82;7.55;;;12.60;69.60;;;;;;5007366;28;20184;-74
2021/01/01 08:00:46;;;;;;;12.52;8.02;;;12.80;69.50;;;;;;5007864;28;20212;-74
2021/01/01 08:03:15;;;;;;;13.20;8.20;;;13.20;68.70;;;;;;5006641;28;20212;-74
2021/01/01 08:05:45;;;;;;;17.30;7.65;;;13.50;68.00;;;;;;5006940;28;20184;-73
2021/01/01 08:08:12;;;;;;;9.55;6.95;;;13.90;67.60;;;;;;5005971;28;20227;-73
2021/01/01 08:10:39;;;;;;;9.70;6.93;;;14.20;67.40;;;;;;4999185;28;20186;-73
2021/01/01 08:13:18;;;;;;;11.95;6.90;;;14.30;66.00;;;;;;5003087;28;20189;-74
2021/01/01 08:15:44;;;;;;;13.57;7.40;;;14.30;65.20;;;;;;5021276;28;20204;-74
2021/01/01 08:18:18;;;;;;;8.52;7.00;;;14.50;65.40;;;;;;5006346;28;20188;-74
2021/01/01 08:21:05;;;;;;;11.35;7.65;;;14.70;66.30;;;;;;5022141;28;20558;-73
2021/01/01 08:23:45;;;;;;;11.57;7.18;;;14.70;64.40;;;;;;5005790;28;20193;-74
2021/01/01 08:26:12;;;;;;;9.75;6.28;;;15.00;65.40;;;;;;5005526;28;20584;-73
2021/01/01 08:28:40;;;;;;;6.47;5.85;;;15.40;64.30;;;;;;5005875;28;20193;-74
2021/01/01 08:31:08;;;;;;;7.47;5.93;;;15.90;63.50;;;;;;5006651;28;20216;-80
2021/01/01 08:33:40;;;;;;;7.03;6.07;;;16.50;62.60;;;;;;5020109;28;20196;-80
2021/01/01 08:36:09;;;;;;;7.32;6.25;;;17.10;62.10;;;;;;5009492;28;20204;-79
2021/01/01 08:38:36;;;;;;;11.20;7.55;;;17.70;61.60;;;;;;5007968;28;20358;-80
2021/01/01 08:41:04;;;;;;;9.52;7.75;;;18.00;58.90;;;;;;5010010;28;20173;-81
2021/01/01 08:43:30;;;;;;;14.15;8.18;;;18.30;59.40;;;;;;5005343;28;20194;-80
2021/01/01 08:45:56;;;;;;;14.07;8.13;;;18.70;59.20;;;;;;4991043;28;20280;-80
2021/01/01 08:48:28;;;;;;;11.40;8.80;;;19.20;59.00;;;;;;4995729;28;20189;-81
2021/01/01 08:50:54;;;;;;;10.25;8.23;;;19.60;56.40;;;;;;4999653;28;20208;-77
2021/01/01 08:53:20;;;;;;;12.07;7.97;;;20.00;55.90;;;;;;5001984;28;20606;-76
2021/01/01 08:55:57;;;;;;;8.18;7.38;;;20.00;56.50;;;;;;5007418;28;20209;-82
2021/01/01 08:58:23;;;;;;;8.90;7.90;;;20.20;55.70;;;;;;5008694;28;20372;-83
2021/01/01 09:00:49;;;;;;;9.85;7.80;;;20.30;55.10;;;;;;5008591;28;20741;-82
2021/01/01 09:03:17;;;;;;;10.65;7.78;;;20.50;54.80;;;;;;4999867;28;20189;-83
2021/01/01 09:05:44;;;;;;;10.93;7.68;;;20.50;54.30;;;;;;5006943;28;20191;-80
2021/01/01 09:08:17;;;;;;;8.38;7.57;;;20.60;54.80;;;;;;5008897;28;20220;-80
2021/01/01 09:10:45;;;;;;;9.35;7.78;;;21.00;55.30;;;;;;5009825;28;20244;-86
2021/01/01 09:13:14;;;;;;;9.25;7.05;;;21.30;53.90;;;;;;5008071;28;20199;-83
2021/01/01 09:15:40;;;;;;;8.38;6.38;;;21.80;54.80;;;;;;4993168;28;20203;-85
2021/01/01 09:18:07;;;;;;;8.68;6.47;;;22.20;51.60;;;;;;5008883;28;20173;-84
2021/01/01 09:20:34;;;;;;;7.88;6.80;;;22.60;51.70;;;;;;5004283;28;20209;-81
2021/01/01 09:23:02;;;;;;;7.90;6.57;;;22.90;52.80;;;;;;5002040;28;20677;-78
2021/01/01 09:25:30;;;;;;;7.25;6.28;;;22.90;51.90;;;;;;5007488;28;20561;-82
2021/01/01 09:27:57;;;;;;;9.05;5.75;;;23.10;51.10;;;;;;5024976;28;20181;-81
2021/01/01 09:30:48;;;;;;;7.65;5.82;;;23.20;50.80;;;;;;5007426;28;20200;-86
2021/01/01 09:33:14;;;;;;;8.13;5.13;;;23.40;49.70;;;;;;4948613;29;20585;-85
2021/01/01 09:35:40;;;;;;;12.13;5.25;;;23.40;51.50;;;;;;4946692;29;20229;-82
2021/01/01 09:38:05;;;;;;;7.03;4.80;;;23.40;50.50;;;;;;4944115;29;20195;-87
2021/01/01 09:40:37;;;;;;;5.10;4.70;;;23.20;49.80;;;;;;4948661;29;20273;-88
2021/01/01 09:43:07;;;;;;;4.68;4.30;;;23.40;51.70;;;;;;4947914;29;20198;-83
2021/01/01 09:45:42;;;;;;;5.10;4.70;;;23.50;50.80;;;;;;4948657;29;20862;-82
2021/01/01 09:48:07;;;;;;;4.70;4.30;;;23.60;49.70;;;;;;4933153;29;20193;-85
2021/01/01 09:50:33;;;;;;;7.85;4.13;;;23.90;50.30;;;;;;4931723;29;20191;-83
2021/01/01 09:52:59;;;;;;;6.05;4.13;;;24.10;50.30;;;;;;4935199;29;20190;-89
2021/01/01 09:55:25;;;;;;;5.47;4.30;;;24.40;48.90;;;;;;4951733;29;20179;-85
2021/01/01 09:57:51;;;;;;;4.55;4.20;;;24.70;50.00;;;;;;4937194;29;20195;-88
2021/01/01 10:00:18;;;;;;;4.60;4.20;;;25.00;47.60;;;;;;4945096;29;20211;-82
2021/01/01 10:02:44;;;;;;;5.10;4.60;;;25.20;47.50;;;;;;4948765;29;20194;-84
2021/01/01 10:05:11;;;;;;;4.57;4.07;;;25.10;48.70;;;;;;4947897;29;20215;-83
2021/01/01 10:07:37;;;;;;;3.25;2.95;;;25.00;47.10;;;;;;4944760;29;20188;-79
2021/01/01 10:10:07;;;;;;;12.07;4.07;;;25.00;49.30;;;;;;4953045;28;20203;-82
2021/01/01 10:12:33;;;;;;;4.20;3.80;;;25.20;48.90;;;;;;5008070;28;21049;-79
2021/01/01 10:14:59;;;;;;;4.13;3.67;;;25.20;47.20;;;;;;5015949;28;20187;-80
2021/01/01 10:17:26;;;;;;;4.47;4.05;;;25.50;49.90;;;;;;5002485;28;20185;-79
2021/01/01 10:19:52;;;;;;;4.88;4.47;;;25.60;49.40;;;;;;5007381;28;20184;-81
2021/01/01 10:22:18;;;;;;;7.32;4.85;;;25.70;47.50;;;;;;5004439;28;20585;-82
2021/01/01 10:24:45;;;;;;;4.93;4.40;;;25.70;48.30;;;;;;5029360;28;20203;-87
2021/01/01 10:27:12;;;;;;;4.78;4.43;;;25.90;48.50;;;;;;5027590;28;20184;-85
2021/01/01 10:29:37;;;;;;;5.55;4.50;;;26.10;46.50;;;;;;5026972;28;20215;-80
2021/01/01 10:32:04;;;;;;;4.47;4.13;;;26.30;49.00;;;;;;5028797;28;20227;-84
2021/01/01 10:34:30;;;;;;;4.90;4.38;;;26.40;49.10;;;;;;5028717;28;20233;-86
2021/01/01 10:36:56;;;;;;;5.03;4.55;;;26.50;49.10;;;;;;5012048;28;20194;-83
2021/01/01 10:39:22;;;;;;;5.22;4.80;;;26.50;48.00;;;;;;4990782;28;20279;-83
2021/01/01 10:41:49;;;;;;;3.95;3.70;;;26.60;47.80;;;;;;5016911;28;20188;-83
2021/01/01 10:44:15;;;;;;;3.90;3.60;;;26.70;46.50;;;;;;5011224;28;20184;-80
2021/01/01 10:46:41;;;;;;;4.30;3.70;;;26.80;47.40;;;;;;4997489;28;20193;-83
2021/01/01 10:49:08;;;;;;;3.38;3.17;;;26.90;48.20;;;;;;4989448;28;20173;-82
2021/01/01 10:51:34;;;;;;;4.50;3.78;;;26.90;47.40;;;;;;4989570;28;20178;-82
2021/01/01 10:53:59;;;;;;;4.28;3.88;;;27.00;46.10;;;;;;5008691;28;20179;-85
2021/01/01 10:56:27;;;;;;;3.95;3.65;;;27.20;47.50;;;;;;5009465;28;20192;-82
2021/01/01 10:58:53;;;;;;;4.38;4.00;;;27.40;46.80;;;;;;5007784;28;20188;-88
2021/01/01 11:01:20;;;;;;;4.07;3.72;;;27.40;47.30;;;;;;5008000;28;20181;-88
2021/01/01 11:03:47;;;;;;;3.90;3.58;;;27.40;47.00;;;;;;5007829;28;20243;-88
2021/01/01 11:06:14;;;;;;;3.50;3.33;;;27.20;44.70;;;;;;5007970;28;20197;-88
2021/01/01 11:08:41;;;;;;;5.72;4.30;;;27.20;47.50;;;;;;5020387;28;20191;-85
2021/01/01 11:11:07;;;;;;;3.97;3.70;;;27.30;45.10;;;;;;5011239;28;20555;-86
2021/01/01 11:13:36;;;;;;;4.43;4.03;;;27.10;46.10;;;;;;4993845;28;20182;-85
2021/01/01 12:22:39;;;;;;;0.10;0.10;;;17.60;49.30;;;;;;4988179;28;20200;-78
2021/01/01 12:25:09;;;;;;;0.20;0.20;;;17.20;50.70;;;;;;5003487;28;20715;-77
2021/01/01 12:27:35;;;;;;;0.80;0.20;;;17.10;50.10;;;;;;5003570;28;20227;-77
2021/01/01 12:30:07;;;;;;;0.30;0.30;;;16.90;50.80;;;;;;5003104;28;20631;-77
2021/01/01 12:32:34;;;;;;;0.22;0.22;;;16.70;50.70;;;;;;5002999;28;20196;-78
2021/01/01 12:35:00;;;;;;;0.13;0.13;;;16.50;50.80;;;;;;5005541;28;20276;-78
2021/01/01 12:37:27;;;;;;;0.20;0.20;;;16.40;51.10;;;;;;5004754;28;20177;-78
2021/01/01 12:39:53;;;;;;;3.13;0.20;;;16.30;51.80;;;;;;5005810;28;20264;-77
2021/01/01 12:42:19;;;;;;;0.30;0.30;;;16.30;53.10;;;;;;5006150;28;20726;-77
2021/01/01 12:44:46;;;;;;;0.20;0.20;;;16.50;52.30;;;;;;5006032;28;20645;-77
2021/01/01 12:47:13;;;;;;;0.35;0.20;;;16.40;51.20;;;;;;5006104;28;20200;-77
2021/01/01 12:49:39;;;;;;;0.20;0.20;;;16.20;51.70;;;;;;5002381;28;20193;-77
2021/01/01 12:52:04;;;;;;;0.20;0.20;;;16.30;52.90;;;;;;5001635;28;20204;-79
2021/01/01 12:54:30;;;;;;;0.20;0.20;;;16.50;52.20;;;;;;5008025;28;20559;-77
2021/01/01 12:56:56;;;;;;;0.22;0.22;;;16.60;52.60;;;;;;4999349;28;20185;-77
2021/01/01 12:59:22;;;;;;;0.20;0.20;;;16.50;52.30;;;;;;5008960;28;20188;-77
2021/01/01 13:01:47;;;;;;;0.20;0.20;;;16.40;53.20;;;;;;5007821;28;20184;-77
2021/01/01 13:04:13;;;;;;;0.30;0.30;;;16.40;52.30;;;;;;5004922;28;20591;-78
2021/01/01 13:06:39;;;;;;;0.80;0.20;;;16.20;53.30;;;;;;5006743;28;20212;-77
2021/01/01 13:09:05;;;;;;;0.50;0.50;;;16.20;52.10;;;;;;5007662;28;20176;-76
2021/01/01 13:11:31;;;;;;;0.35;0.28;;;16.20;52.60;;;;;;4999365;28;20221;-77
2021/01/01 13:13:58;;;;;;;1.35;0.20;;;16.10;53.00;;;;;;5000717;28;20227;-77
2021/01/01 13:16:25;;;;;;;0.20;0.20;;;15.90;53.00;;;;;;5009551;28;21736;-79
2021/01/01 13:18:52;;;;;;;0.13;0.13;;;15.90;53.50;;;;;;5010160;28;20199;-82
2021/01/01 13:21:28;;;;;;;0.20;0.20;;;16.00;53.70;;;;;;5013290;28;20220;-82
2021/01/01 13:23:55;;;;;;;0.30;0.30;;;16.00;52.70;;;;;;5016040;28;20191;-79
2021/01/01 13:26:22;;;;;;;0.30;0.30;;;15.90;52.60;;;;;;5012443;28;20212;-80
2021/01/01 13:28:48;;;;;;;0.40;0.40;;;15.80;53.80;;;;;;5006154;28;20212;-77
2021/01/01 13:31:15;;;;;;;0.20;0.20;;;15.80;54.00;;;;;;5006374;28;20223;-76
2021/01/01 13:33:41;;;;;;;0.20;0.20;;;15.70;53.10;;;;;;5006310;28;20211;-76
2021/01/01 13:36:20;;;;;;;0.30;0.30;;;15.70;53.30;;;;;;5010762;28;20177;-85
2021/01/01 13:38:47;;;;;;;1.02;0.40;;;15.70;53.30;;;;;;5021100;28;20699;-83
2021/01/01 13:41:13;;;;;;;0.68;0.30;;;15.70;53.50;;;;;;4995619;28;20185;-75
2021/01/01 13:43:44;;;;;;;0.22;0.22;;;15.70;53.20;;;;;;5016436;28;20227;-76
2021/01/01 13:46:18;;;;;;;0.60;0.17;;;15.70;53.50;;;;;;5002753;28;20778;-79
2021/01/01 13:48:44;;;;;;;0.30;0.30;;;15.60;53.40;;;;;;5003717;28;20190;-79
2021/01/01 13:51:10;;;;;;;0.32;0.20;;;15.50;53.60;;;;;;5004453;28;20185;-78
2021/01/01 13:53:35;;;;;;;0.20;0.20;;;15.40;53.80;;;;;;5008949;28;20250;-79
2021/01/01 13:56:01;;;;;;;0.45;0.45;;;15.30;53.90;;;;;;5011210;28;20734;-80
2021/01/01 13:58:28;;;;;;;0.50;0.50;;;15.30;53.90;;;;;;5006300;28;20181;-91